Time;durP1;ratioP1;P1;durP2;ratioP2;P2;SDS_P1;SDS_P2;PMS_P1;PMS_P2;Temp;Humidity;BMP_temperature;BMP_pressure;BME280_temperature;BME280_humidity;BME280_pressure;Samples;Min_cycle;Max_cycle;Signal;HPM_P1;HPM_P2
2022/08/08 00:00:16;;;;;;;10.50;7.68;;;;;;;17.00;64.63;102327.22;5112657;27;20180;-62
2022/08/08 00:02:44;;;;;;;9.55;7.63;;;;;;;17.10;64.28;102334.66;5129803;27;20043;-62
2022/08/08 00:05:39;;;;;;;10.65;7.72;;;;;;;17.15;63.45;102327.16;5111347;27;20386;-62
2022/08/08 00:08:07;;;;;;;10.30;8.45;;;;;;;17.00;64.74;102326.31;5114852;27;20035;-62
2022/08/08 00:10:45;;;;;;;11.15;7.90;;;;;;;17.06;63.91;102328.63;5132367;27;20023;-62
2022/08/08 00:13:37;;;;;;;12.13;8.45;;;;;;;17.02;63.94;102329.78;5118060;27;20066;-62
2022/08/08 00:16:21;;;;;;;10.32;7.95;;;;;;;16.95;64.48;102341.91;5112917;27;20023;-62
2022/08/08 00:18:55;;;;;;;12.50;8.55;;;;;;;16.86;64.77;102340.69;5121451;27;20024;-62
2022/08/08 00:21:29;;;;;;;9.95;8.15;;;;;;;16.86;64.98;102331.78;5110744;27;20063;-62
2022/08/08 00:24:03;;;;;;;11.98;7.78;;;;;;;16.90;64.91;102338.66;5117791;27;20133;-62
2022/08/08 00:26:34;;;;;;;11.93;8.63;;;;;;;16.80;65.07;102336.59;5112962;27;20039;-62
2022/08/08 00:29:23;;;;;;;11.63;7.75;;;;;;;16.79;65.07;102342.94;5116253;27;20024;-62
2022/08/08 00:31:52;;;;;;;12.65;8.52;;;;;;;16.73;65.24;102343.28;5114406;27;20031;-62
2022/08/08 00:37:54;;;;;;;12.40;9.10;;;;;;;16.71;65.48;102339.84;5130243;27;20091;-62
2022/08/08 00:40:28;;;;;;;13.20;9.05;;;;;;;16.66;65.46;102339.28;5122693;27;20075;-62
2022/08/08 00:43:27;;;;;;;11.00;8.45;;;;;;;16.67;65.21;102351.72;5126119;27;20134;-62
2022/08/08 00:46:05;;;;;;;11.32;8.75;;;;;;;16.56;65.85;102338.16;5112228;28;20036;-62
2022/08/08 00:48:36;;;;;;;14.38;9.25;;;;;;;16.55;65.81;102339.09;5115062;27;20070;-62
2022/08/08 00:51:08;;;;;;;12.48;9.23;;;;;;;16.48;66.19;102337.78;5132543;27;20023;-62
2022/08/08 00:54:01;;;;;;;12.98;9.88;;;;;;;16.42;66.02;102330.97;5124668;27;20072;-62
2022/08/08 00:56:51;;;;;;;10.30;9.02;;;;;;;16.35;66.31;102329.63;5123339;27;20098;-62
2022/08/08 00:59:22;;;;;;;;;;;;;;;16.55;64.23;102331.91;5118623;27;20387;-62
2022/08/08 01:02:12;;;;;;;12.60;9.18;;;;;;;16.35;66.06;102335.00;5112360;27;19994;-62
2022/08/08 01:05:08;;;;;;;12.50;9.73;;;;;;;16.30;66.58;102326.41;5094506;28;20035;-62
2022/08/08 01:07:49;;;;;;;11.63;9.48;;;;;;;16.24;66.86;102335.69;5080779;27;20114;-62
2022/08/08 01:10:33;;;;;;;15.73;10.10;;;;;;;16.21;67.04;102327.84;5127042;27;20027;-62
2022/08/08 01:13:38;;;;;;;10.77;9.52;;;;;;;16.28;66.99;102326.47;5115188;27;20023;-62
2022/08/08 01:16:34;;;;;;;12.32;10.18;;;;;;;16.29;66.82;102327.34;5112174;27;20037;-62
2022/08/08 01:19:28;;;;;;;11.38;9.65;;;;;;;16.27;66.80;102330.13;5123416;27;20030;-62
2022/08/08 01:22:12;;;;;;;12.20;10.00;;;;;;;16.20;67.16;102326.09;5126749;27;20091;-62
2022/08/08 01:25:04;;;;;;;12.82;9.98;;;;;;;16.20;67.56;102334.16;5126256;27;20023;-62
2022/08/08 01:27:57;;;;;;;13.95;10.38;;;;;;;16.20;67.32;102330.59;5111414;28;20036;-62
2022/08/08 01:30:41;;;;;;;13.75;10.55;;;;;;;16.09;67.73;102324.09;5122381;27;20029;-62
2022/08/08 01:33:22;;;;;;;12.35;10.50;;;;;;;16.04;68.26;102322.66;5124880;27;20667;-62
2022/08/08 01:36:11;;;;;;;12.90;10.43;;;;;;;15.94;68.57;102317.00;5129639;27;20031;-62
2022/08/08 01:38:54;;;;;;;13.23;11.27;;;;;;;16.03;67.89;102323.59;5114001;27;20058;-62
2022/08/08 01:41:52;;;;;;;12.48;10.98;;;;;;;16.01;68.05;102323.72;5121535;27;20028;-62
2022/08/08 01:44:45;;;;;;;17.67;11.15;;;;;;;16.05;67.86;102316.34;5128267;27;20027;-62
2022/08/08 01:47:19;;;;;;;15.35;11.23;;;;;;;15.97;68.28;102313.25;5116362;27;20037;-62
2022/08/08 01:50:02;;;;;;;14.73;10.90;;;;;;;15.99;68.53;102322.94;5124545;27;20024;-62
2022/08/08 01:52:51;;;;;;;14.30;11.38;;;;;;;15.86;69.14;102324.69;5123442;28;20032;-62
2022/08/08 01:55:35;;;;;;;14.65;12.18;;;;;;;15.87;68.95;102316.50;5122838;28;20030;-62
2022/08/08 01:58:44;;;;;;;12.52;11.23;;;;;;;15.91;68.77;102325.22;5131648;28;20019;-62
2022/08/08 02:01:37;;;;;;;15.23;11.07;;;;;;;15.87;68.93;102331.75;5093074;28;20027;-62
2022/08/08 02:04:07;;;;;;;14.70;11.45;;;;;;;15.75;69.83;102329.84;5114884;28;20064;-62
2022/08/08 02:06:44;;;;;;;15.88;12.60;;;;;;;15.73;69.90;102329.91;5128904;28;20042;-62
2022/08/08 02:09:17;;;;;;;14.63;11.48;;;;;;;15.71;69.65;102331.84;5111306;28;20034;-62
2022/08/08 02:11:47;;;;;;;15.70;11.30;;;;;;;15.63;70.02;102329.59;5114977;28;20030;-62
2022/08/08 02:14:41;;;;;;;13.75;10.65;;;;;;;15.71;69.50;102334.53;5124344;28;20039;-62
2022/08/08 02:17:19;;;;;;;16.38;11.07;;;;;;;15.64;69.84;102333.97;5106608;28;20020;-62
2022/08/08 02:19:56;;;;;;;15.18;11.90;;;;;;;15.66;70.29;102326.72;5127711;27;20027;-62
2022/08/08 02:22:46;;;;;;;17.52;11.07;;;;;;;15.64;69.76;102328.63;5124513;27;20090;-62
2022/08/08 02:25:11;;;;;;;14.02;11.90;;;;;;;15.62;70.02;102333.22;5118938;27;20085;-62
2022/08/08 02:28:02;;;;;;;14.07;12.18;;;;;;;15.60;69.68;102331.59;5130989;27;20019;-62
2022/08/08 02:30:52;;;;;;;13.23;11.77;;;;;;;15.54;69.65;102335.50;5116778;27;20043;-62
2022/08/08 02:33:34;;;;;;;18.60;12.30;;;;;;;15.45;70.39;102328.88;5129453;27;20550;-62
2022/08/08 02:36:11;;;;;;;15.88;12.15;;;;;;;15.47;70.31;102328.81;5128605;27;20450;-62
2022/08/08 02:39:12;;;;;;;14.73;12.68;;;;;;;15.52;70.17;102336.56;5117149;27;20027;-62
2022/08/08 02:41:59;;;;;;;14.57;11.93;;;;;;;15.36;70.82;102326.75;5119571;27;20035;-62
2022/08/08 02:44:30;;;;;;;15.88;12.23;;;;;;;15.31;70.72;102326.16;5132167;27;20034;-62
2022/08/08 02:47:04;;;;;;;14.18;12.02;;;;;;;15.28;71.24;102323.66;5104626;27;20517;-62
2022/08/08 02:49:47;;;;;;;13.20;11.82;;;;;;;15.18;71.08;102322.50;5124273;27;20036;-62
2022/08/08 02:52:28;;;;;;;17.10;11.55;;;;;;;15.16;71.05;102324.38;5129045;27;20537;-62
2022/08/08 02:55:45;;;;;;;13.63;12.23;;;;;;;15.16;71.19;102319.03;5114595;27;20114;-62
2022/08/08 02:58:23;;;;;;;16.52;12.25;;;;;;;15.10;71.52;102330.97;5099835;27;20011;-62
2022/08/08 03:01:22;;;;;;;16.23;13.13;;;;;;;15.12;71.24;102328.22;5121006;27;20031;-62
2022/08/08 03:04:37;;;;;;;16.17;12.82;;;;;;;15.16;70.92;102327.94;5118727;27;20032;-62
2022/08/08 03:07:29;;;;;;;14.35;12.60;;;;;;;15.08;71.69;102337.38;5114943;28;20376;-62
2022/08/08 03:10:18;;;;;;;14.57;12.07;;;;;;;15.09;71.73;102339.09;5099342;28;20120;-62
2022/08/08 03:13:05;;;;;;;16.80;12.68;;;;;;;15.12;71.51;102338.94;5119518;27;20034;-62
2022/08/08 03:15:44;;;;;;;16.80;12.23;;;;;;;15.10;71.60;102330.97;5111160;27;20162;-62
2022/08/08 03:18:17;;;;;;;14.10;12.70;;;;;;;15.09;71.81;102329.25;5104556;27;20483;-62
2022/08/08 03:20:46;;;;;;;17.80;13.30;;;;;;;14.98;72.11;102331.69;5126494;27;20281;-62
2022/08/08 03:23:14;;;;;;;17.65;12.85;;;;;;;14.94;72.24;102338.16;5101208;28;20028;-62
2022/08/08 03:25:42;;;;;;;16.80;13.00;;;;;;;14.80;72.16;102322.91;5130193;27;20031;-63
2022/08/08 03:28:21;;;;;;;15.55;13.63;;;;;;;14.86;72.66;102340.44;5094846;28;20020;-62
2022/08/08 03:30:49;;;;;;;15.38;12.63;;;;;;;14.84;72.64;102348.53;5115438;27;20391;-62
2022/08/08 03:33:17;;;;;;;14.50;13.00;;;;;;;14.79;72.85;102355.09;5122037;27;20035;-62
2022/08/08 03:35:43;;;;;;;14.70;13.05;;;;;;;14.76;72.93;102346.31;5104237;27;20088;-62
2022/08/08 03:38:08;;;;;;;14.02;12.60;;;;;;;14.83;72.94;102348.66;5114097;28;20025;-62
2022/08/08 03:40:34;;;;;;;17.33;13.70;;;;;;;14.83;72.77;102340.59;5111774;27;20461;-62
2022/08/08 03:43:00;;;;;;;19.20;14.00;;;;;;;14.83;72.89;102351.31;5098349;27;20047;-62
2022/08/08 03:45:27;;;;;;;16.30;12.98;;;;;;;14.75;73.32;102347.25;5084701;28;20031;-62
2022/08/08 03:48:07;;;;;;;16.95;13.50;;;;;;;14.75;73.20;102360.63;5114487;27;20489;-62
2022/08/08 03:50:35;;;;;;;16.13;13.25;;;;;;;14.67;72.91;102352.16;5124503;27;20476;-62
2022/08/08 03:53:15;;;;;;;17.88;13.68;;;;;;;14.75;73.20;102351.75;5121477;27;20372;-62
2022/08/08 03:55:41;;;;;;;;;;;;;;;14.92;71.28;102354.34;5101791;28;20491;-62
2022/08/08 03:58:08;;;;;;;16.60;13.02;;;;;;;14.76;73.17;102354.34;5109300;27;19911;-62
2022/08/08 04:00:35;;;;;;;17.65;13.18;;;;;;;14.64;73.45;102354.16;5132550;27;20031;-62
2022/08/08 04:03:08;;;;;;;17.33;13.30;;;;;;;14.70;73.45;102360.03;5118996;27;20418;-62
2022/08/08 04:05:36;;;;;;;15.55;13.60;;;;;;;14.65;73.40;102358.59;5137294;27;20476;-62
2022/08/08 04:08:06;;;;;;;16.30;13.65;;;;;;;14.54;73.91;102362.72;5116014;27;20356;-62
2022/08/08 04:10:35;;;;;;;14.98;13.40;;;;;;;14.56;74.08;102367.09;5093724;28;20028;-62
2022/08/08 04:13:03;;;;;;;16.58;13.80;;;;;;;14.52;74.19;102374.44;5118201;27;20031;-62
2022/08/08 04:15:28;;;;;;;16.92;14.20;;;;;;;14.52;73.96;102371.78;5102807;27;20066;-62
2022/08/08 04:17:53;;;;;;;17.50;13.95;;;;;;;14.50;74.05;102373.63;5102193;28;20055;-62
2022/08/08 04:20:19;;;;;;;18.58;14.50;;;;;;;14.47;74.59;102369.34;5096503;28;20035;-62
2022/08/08 04:22:45;;;;;;;16.42;14.73;;;;;;;14.43;74.68;102372.25;5117085;27;20027;-62
2022/08/08 04:25:11;;;;;;;18.92;14.20;;;;;;;14.52;74.26;102366.41;5123480;27;20034;-62
2022/08/08 04:27:37;;;;;;;15.68;13.90;;;;;;;14.47;74.29;102365.75;5131368;27;20125;-62
2022/08/08 04:30:05;;;;;;;17.92;14.35;;;;;;;14.49;74.58;102366.56;5109705;27;20022;-62
2022/08/08 04:32:30;;;;;;;17.33;13.50;;;;;;;14.54;74.49;102375.25;5115732;27;20045;-62
2022/08/08 04:34:56;;;;;;;18.90;14.98;;;;;;;14.49;74.82;102369.22;5113580;27;20475;-62
2022/08/08 04:37:22;;;;;;;18.40;14.27;;;;;;;14.52;74.67;102380.66;5093818;28;20039;-62
2022/08/08 04:39:47;;;;;;;17.90;14.75;;;;;;;14.47;75.26;102381.84;5112560;27;20480;-62
2022/08/08 04:42:13;;;;;;;16.58;14.07;;;;;;;14.50;75.46;102381.66;5111318;27;20050;-62
2022/08/08 04:44:39;;;;;;;18.08;14.65;;;;;;;14.53;75.36;102384.22;5113356;28;20105;-62
2022/08/08 04:47:07;;;;;;;16.15;14.45;;;;;;;14.48;75.58;102384.44;5110244;27;20060;-62
2022/08/08 04:49:33;;;;;;;17.27;14.57;;;;;;;14.51;75.59;102391.44;5131692;27;20479;-62
2022/08/08 04:51:59;;;;;;;16.75;14.23;;;;;;;14.53;75.73;102397.63;5119924;27;20036;-62
2022/08/08 04:54:24;;;;;;;15.68;13.77;;;;;;;14.56;75.52;102399.22;5129482;27;20023;-62
2022/08/08 04:56:50;;;;;;;16.67;14.18;;;;;;;14.56;76.04;102402.81;5120821;27;20031;-62
2022/08/08 04:59:16;;;;;;;16.92;14.65;;;;;;;14.53;76.18;102395.81;5113310;27;20506;-62
2022/08/08 05:01:42;;;;;;;16.90;14.07;;;;;;;14.57;76.42;102403.66;5094870;28;20028;-62
2022/08/08 05:04:08;;;;;;;16.90;14.38;;;;;;;14.57;76.63;102409.03;5113474;27;20491;-62
2022/08/08 05:06:34;;;;;;;18.10;15.23;;;;;;;14.59;76.71;102413.34;5108993;27;20471;-62
2022/08/08 05:09:00;;;;;;;17.00;14.38;;;;;;;14.64;76.68;102416.59;5087969;28;20038;-62
2022/08/08 05:11:29;;;;;;;18.63;14.23;;;;;;;14.72;76.52;102405.50;5076148;27;20036;-62
2022/08/08 05:13:54;;;;;;;16.45;14.73;;;;;;;14.73;76.67;102407.19;5125298;27;20027;-62
2022/08/08 05:16:19;;;;;;;19.00;15.27;;;;;;;14.77;76.70;102404.28;5139075;27;20483;-62
2022/08/08 05:18:46;;;;;;;23.70;15.65;;;;;;;14.83;76.74;102418.28;5092602;27;20031;-62
2022/08/08 05:21:12;;;;;;;18.48;15.27;;;;;;;14.83;77.04;102423.66;5116501;27;20107;-62
2022/08/08 05:23:38;;;;;;;17.42;14.35;;;;;;;14.93;76.88;102419.50;5107594;27;20114;-62
2022/08/08 05:26:04;;;;;;;18.48;14.57;;;;;;;14.95;76.87;102418.47;5091299;28;20031;-62
2022/08/08 05:28:30;;;;;;;18.38;14.98;;;;;;;15.03;76.88;102415.34;5077615;28;20027;-62
2022/08/08 05:30:55;;;;;;;20.00;14.40;;;;;;;15.13;76.76;102418.38;5094847;28;20047;-62
2022/08/08 05:33:23;;;;;;;17.55;14.73;;;;;;;15.13;77.09;102421.06;5111465;28;20023;-62
2022/08/08 05:35:53;;;;;;;17.67;13.85;;;;;;;15.13;77.01;102413.88;5123459;27;20027;-62
2022/08/08 05:38:20;;;;;;;19.42;13.95;;;;;;;15.19;76.86;102405.47;5113790;27;20023;-62
2022/08/08 05:40:49;;;;;;;17.67;14.50;;;;;;;15.36;76.48;102417.06;5112971;27;20036;-62
2022/08/08 05:43:27;;;;;;;19.02;13.80;;;;;;;15.36;77.02;102423.28;5124849;27;20057;-62
2022/08/08 05:45:58;;;;;;;15.27;13.63;;;;;;;15.47;76.80;102419.09;5115698;27;20031;-62
2022/08/08 05:48:24;;;;;;;16.88;13.40;;;;;;;15.51;76.77;102416.16;5113160;28;20098;-62
2022/08/08 05:50:50;;;;;;;14.23;12.82;;;;;;;15.61;76.57;102403.91;5114764;27;20125;-62
2022/08/08 05:53:17;;;;;;;18.95;12.35;;;;;;;15.80;76.02;102410.91;5095289;28;20081;-62
2022/08/08 05:55:43;;;;;;;16.10;11.52;;;;;;;15.92;75.79;102414.69;5105517;28;20107;-62
2022/08/08 05:58:11;;;;;;;14.27;11.27;;;;;;;15.94;76.22;102407.38;5102332;28;20543;-62
2022/08/08 06:00:37;;;;;;;14.60;12.50;;;;;;;16.09;75.25;102420.75;5132993;27;20455;-62
2022/08/08 06:03:12;;;;;;;13.07;11.40;;;;;;;16.18;75.40;102423.78;5103377;28;20043;-62
2022/08/08 06:05:51;;;;;;;13.88;11.82;;;;;;;16.20;75.10;102422.75;5115095;28;20053;-62
2022/08/08 06:08:24;;;;;;;23.58;11.93;;;;;;;16.17;75.23;102422.06;5128532;28;20048;-62
2022/08/08 06:10:51;;;;;;;14.10;11.32;;;;;;;16.17;74.80;102425.63;5107647;28;20039;-62
2022/08/08 06:13:18;;;;;;;16.08;11.32;;;;;;;16.28;74.68;102428.50;5119920;28;20562;-62
2022/08/08 06:15:47;;;;;;;13.13;10.82;;;;;;;16.43;74.27;102433.91;5127358;28;20024;-62
2022/08/08 06:18:13;;;;;;;13.70;11.00;;;;;;;16.50;74.46;102425.38;5113889;28;20532;-62
2022/08/08 06:20:39;;;;;;;13.93;11.20;;;;;;;16.60;73.59;102430.16;5117065;28;20145;-62
2022/08/08 06:23:05;;;;;;;16.73;10.75;;;;;;;16.65;73.30;102431.59;5117668;28;20805;-62
2022/08/08 06:25:30;;;;;;;14.43;10.88;;;;;;;16.78;73.00;102435.25;5122317;28;20043;-62
2022/08/08 06:28:03;;;;;;;13.52;10.02;;;;;;;16.85;73.01;102441.06;5111818;28;20490;-62
2022/08/08 06:30:30;;;;;;;19.23;10.38;;;;;;;17.02;72.07;102442.69;5131242;28;20088;-62
2022/08/08 06:32:58;;;;;;;12.00;10.38;;;;;;;17.20;71.61;102448.69;5125117;28;20031;-62
2022/08/08 06:35:24;;;;;;;16.95;10.32;;;;;;;17.34;71.99;102451.34;5128491;28;20023;-62
2022/08/08 06:37:55;;;;;;;14.57;10.05;;;;;;;17.40;71.21;102448.25;5110216;28;20031;-62
2022/08/08 06:40:24;;;;;;;16.80;10.07;;;;;;;17.54;70.78;102446.47;5129244;28;20385;-62
2022/08/08 06:43:09;;;;;;;16.42;9.80;;;;;;;17.61;69.88;102451.31;5126030;28;20047;-62
2022/08/08 06:45:38;;;;;;;14.88;10.40;;;;;;;17.68;69.57;102452.66;5116466;28;20347;-62
2022/08/08 06:48:04;;;;;;;10.95;9.82;;;;;;;17.73;69.99;102449.63;5131584;28;20094;-62
2022/08/08 06:50:31;;;;;;;12.02;9.40;;;;;;;17.82;69.28;102446.34;5130843;28;20031;-62
2022/08/08 06:53:01;;;;;;;9.98;8.82;;;;;;;17.92;69.07;102452.84;5128837;28;20114;-62
2022/08/08 06:55:28;;;;;;;14.05;9.25;;;;;;;17.96;69.04;102452.63;5127532;28;20080;-63
2022/08/08 06:57:54;;;;;;;13.35;9.73;;;;;;;17.98;68.92;102461.47;5120716;28;20027;-62
2022/08/08 07:00:19;;;;;;;10.38;9.32;;;;;;;17.98;69.57;102461.47;5094719;28;20437;-62
2022/08/08 07:02:51;;;;;;;16.08;10.35;;;;;;;17.87;68.92;102467.56;5095064;28;20558;-62
2022/08/08 07:05:23;;;;;;;10.48;9.00;;;;;;;17.92;68.83;102466.28;5130037;28;20423;-63
2022/08/08 07:07:51;;;;;;;12.80;9.68;;;;;;;17.95;68.78;102467.91;5133661;27;20038;-62
2022/08/08 07:10:19;;;;;;;14.98;8.80;;;;;;;18.04;68.62;102463.75;5135554;27;20027;-62
2022/08/08 07:13:16;;;;;;;13.40;9.68;;;;;;;18.09;69.19;102466.97;5115227;27;20488;-62
2022/08/08 07:16:11;;;;;;;11.63;8.63;;;;;;;18.10;69.04;102466.00;5097941;28;20183;-62
2022/08/08 07:18:56;;;;;;;10.52;8.02;;;;;;;18.24;68.01;102474.00;5108184;27;20084;-62
2022/08/08 07:21:27;;;;;;;11.13;8.68;;;;;;;18.35;67.20;102470.53;5101689;27;20031;-62
2022/08/08 07:24:03;;;;;;;10.68;7.55;;;;;;;18.46;66.97;102472.47;5123566;27;20383;-62
2022/08/08 07:26:32;;;;;;;10.25;8.43;;;;;;;18.56;67.13;102476.22;5114695;27;20027;-62
2022/08/08 07:29:03;;;;;;;11.65;7.07;;;;;;;18.66;67.03;102471.06;5094196;28;20020;-62
2022/08/08 07:31:32;;;;;;;10.35;7.18;;;;;;;18.71;66.47;102477.84;5126964;27;20042;-62
2022/08/08 07:33:58;;;;;;;11.88;7.00;;;;;;;18.80;66.29;102466.44;5134472;27;20023;-63
2022/08/08 07:36:25;;;;;;;13.73;7.45;;;;;;;18.94;65.22;102480.75;5124489;27;20055;-63
2022/08/08 07:38:51;;;;;;;10.73;5.72;;;;;;;18.94;64.52;102476.25;5133376;27;20038;-62
2022/08/08 07:41:18;;;;;;;11.27;5.95;;;;;;;19.00;64.40;102481.19;5130624;27;20035;-62
2022/08/08 07:43:44;;;;;;;9.57;5.40;;;;;;;19.06;64.02;102474.47;5116849;27;20058;-62
2022/08/08 07:46:10;;;;;;;10.32;5.43;;;;;;;19.09;63.44;102481.47;5131437;27;20523;-63
2022/08/08 07:48:38;;;;;;;8.63;5.07;;;;;;;19.13;62.69;102481.13;5122755;27;20027;-62
2022/08/08 07:51:04;;;;;;;10.38;5.60;;;;;;;19.18;63.13;102478.13;5090692;27;20038;-62
2022/08/08 07:54:05;;;;;;;7.00;4.40;;;;;;;19.15;62.64;102478.31;5111046;27;20031;-62
2022/08/08 07:56:42;;;;;;;6.55;4.25;;;;;;;19.31;62.21;102489.72;5123648;27;20038;-62
2022/08/08 07:59:13;;;;;;;5.55;4.20;;;;;;;19.28;62.70;102489.94;5132389;27;20030;-62
2022/08/08 08:01:44;;;;;;;8.60;4.82;;;;;;;19.33;62.62;102495.00;5128483;27;20027;-62
2022/08/08 08:04:13;;;;;;;9.18;4.18;;;;;;;19.39;62.91;102495.41;5096611;27;20034;-62
2022/08/08 08:06:42;;;;;;;9.73;4.57;;;;;;;19.38;61.79;102496.38;5123154;27;20023;-62
2022/08/08 08:09:20;;;;;;;9.13;4.00;;;;;;;19.47;61.07;102495.72;5133682;27;20030;-62
2022/08/08 08:11:49;;;;;;;8.80;3.97;;;;;;;19.50;61.25;102495.47;5128608;27;20058;-63
2022/08/08 08:14:27;;;;;;;10.43;3.97;;;;;;;19.63;60.63;102506.22;5105252;27;20027;-63
2022/08/08 08:16:54;;;;;;;6.68;3.70;;;;;;;19.74;60.29;102506.28;5132021;27;20031;-62
2022/08/08 08:19:29;;;;;;;7.50;3.30;;;;;;;19.74;60.08;102492.81;5110527;27;20038;-62
2022/08/08 08:21:54;;;;;;;5.30;3.45;;;;;;;19.85;59.39;102501.91;5108958;28;20080;-62
2022/08/08 08:24:20;;;;;;;8.05;3.47;;;;;;;19.99;59.03;102503.56;5102976;27;20475;-57
2022/08/08 08:26:46;;;;;;;7.32;3.53;;;;;;;20.05;58.99;102509.34;5133345;27;20034;-57
2022/08/08 08:29:11;;;;;;;8.68;4.03;;;;;;;20.03;59.32;102513.16;5112805;27;20023;-56
2022/08/08 08:31:37;;;;;;;6.53;3.45;;;;;;;20.11;59.09;102508.03;5130758;27;20044;-57
2022/08/08 08:34:07;;;;;;;8.25;3.97;;;;;;;20.17;58.84;102503.00;5112804;27;20038;-56
2022/08/08 08:36:34;;;;;;;7.38;3.67;;;;;;;20.22;58.40;102502.66;5090552;28;20039;-56
2022/08/08 08:39:00;;;;;;;6.43;4.10;;;;;;;20.30;58.92;102505.63;5125735;27;20065;-56
2022/08/08 08:41:27;;;;;;;6.70;4.00;;;;;;;20.30;59.11;102511.03;5115636;27;20024;-56
2022/08/08 08:43:52;;;;;;;7.50;3.75;;;;;;;20.37;58.72;102514.09;5099807;28;20047;-57
2022/08/08 08:46:19;;;;;;;8.25;2.90;;;;;;;20.43;58.77;102513.63;5104955;28;20035;-56
2022/08/08 08:48:46;;;;;;;4.18;2.63;;;;;;;20.46;55.76;102517.94;5105310;28;20085;-56
2022/08/08 08:51:14;;;;;;;5.88;2.78;;;;;;;20.55;55.06;102519.94;5096530;28;20101;-60
2022/08/08 08:53:52;;;;;;;5.40;2.80;;;;;;;20.61;55.60;102519.44;5101880;28;20110;-60
2022/08/08 08:56:21;;;;;;;4.45;2.40;;;;;;;20.61;54.37;102519.44;5097645;28;20031;-61
2022/08/08 08:58:48;;;;;;;10.45;3.03;;;;;;;20.72;54.66;102519.47;5108230;27;20107;-61
2022/08/08 09:01:16;;;;;;;5.82;2.65;;;;;;;20.78;55.78;102510.88;5094616;28;20035;-62
2022/08/08 09:03:46;;;;;;;3.67;2.53;;;;;;;20.98;54.99;102520.09;5110380;28;20444;-59
2022/08/08 09:06:25;;;;;;;6.28;3.00;;;;;;;21.05;56.25;102517.75;5112216;28;20042;-61
2022/08/08 09:08:59;;;;;;;7.03;2.90;;;;;;;21.10;54.99;102516.38;5100058;28;20035;-60
2022/08/08 09:11:25;;;;;;;3.30;2.50;;;;;;;21.26;53.35;102518.69;5106727;28;20051;-58
2022/08/08 09:13:51;;;;;;;4.28;2.25;;;;;;;21.23;52.51;102513.53;5094189;28;20103;-57
2022/08/08 09:16:17;;;;;;;4.22;2.72;;;;;;;21.31;52.98;102516.47;5108760;28;20063;-58
2022/08/08 09:18:44;;;;;;;8.50;2.50;;;;;;;21.33;54.02;102502.81;5106400;28;20024;-57
2022/08/08 09:21:10;;;;;;;6.10;2.50;;;;;;;21.52;51.00;102515.72;5103247;28;20032;-58
2022/08/08 09:23:36;;;;;;;6.97;2.40;;;;;;;21.52;50.31;102521.13;5103574;28;20089;-58
2022/08/08 09:26:18;;;;;;;5.40;2.08;;;;;;;21.67;50.91;102525.25;5105138;28;20193;-58
2022/08/08 09:28:43;;;;;;;2.28;1.95;;;;;;;21.73;50.03;102529.31;5096874;28;20099;-58
2022/08/08 09:31:20;;;;;;;7.25;1.88;;;;;;;21.75;50.03;102521.94;5105133;28;20023;-56
2022/08/08 09:33:50;;;;;;;4.63;2.33;;;;;;;21.69;50.41;102517.03;5110447;28;20023;-57
2022/08/08 09:36:21;;;;;;;4.68;2.53;;;;;;;21.87;51.01;102523.59;5105444;27;20425;-58
2022/08/08 09:38:52;;;;;;;3.88;2.20;;;;;;;21.96;51.23;102522.81;5101186;28;20526;-58
2022/08/08 09:41:32;;;;;;;4.82;2.10;;;;;;;22.05;51.79;102514.91;5101923;28;20036;-58
2022/08/08 09:44:05;;;;;;;5.80;2.33;;;;;;;22.17;50.82;102519.28;5127361;27;20414;-59
2022/08/08 09:46:33;;;;;;;5.47;2.17;;;;;;;22.19;50.40;102518.16;5128991;27;20046;-57
2022/08/08 09:49:00;;;;;;;3.45;1.92;;;;;;;22.27;51.04;102506.69;5125304;27;20483;-58
2022/08/08 09:51:31;;;;;;;5.50;2.05;;;;;;;22.34;50.71;102520.56;5127411;27;20023;-59
2022/08/08 09:54:02;;;;;;;3.92;2.10;;;;;;;22.43;50.52;102514.31;5117439;28;20024;-58
2022/08/08 09:56:34;;;;;;;3.97;1.90;;;;;;;22.44;50.33;102513.31;5130527;28;20053;-58
2022/08/08 09:59:11;;;;;;;4.03;1.67;;;;;;;22.42;50.57;102513.47;5128500;28;20055;-58
2022/08/08 10:01:37;;;;;;;4.75;1.73;;;;;;;22.49;50.11;102504.81;5109638;28;20023;-57
2022/08/08 10:04:13;;;;;;;2.85;1.85;;;;;;;22.48;49.19;102512.09;5131401;28;20033;-57
2022/08/08 10:06:43;;;;;;;3.17;1.63;;;;;;;22.59;48.72;102509.28;5132962;27;20490;-57
2022/08/08 10:09:09;;;;;;;4.53;2.10;;;;;;;22.66;49.70;102518.59;5092918;28;20089;-58
2022/08/08 10:11:36;;;;;;;3.97;1.95;;;;;;;22.84;50.47;102515.25;5120787;28;20027;-58
2022/08/08 10:14:03;;;;;;;4.57;1.88;;;;;;;23.08;50.29;102514.94;5130258;28;20034;-59
2022/08/08 10:16:57;;;;;;;5.13;1.80;;;;;;;23.14;48.11;102522.53;5131582;28;20038;-59
2022/08/08 10:19:34;;;;;;;3.22;1.30;;;;;;;22.79;47.53;102510.22;5120044;28;20043;-60
2022/08/08 10:22:01;;;;;;;5.43;1.80;;;;;;;22.76;48.14;102512.34;5131797;28;20019;-59
2022/08/08 10:24:33;;;;;;;2.60;1.50;;;;;;;22.89;48.70;102507.56;5115426;28;20034;-59
2022/08/08 10:27:04;;;;;;;6.47;1.92;;;;;;;23.01;48.70;102517.34;5125317;28;20101;-59
2022/08/08 10:29:48;;;;;;;5.32;1.75;;;;;;;23.15;48.87;102510.69;5119029;28;20038;-59
2022/08/08 10:32:35;;;;;;;3.72;1.42;;;;;;;23.19;46.77;102512.13;5130180;28;20026;-59
2022/08/08 10:35:23;;;;;;;5.05;1.73;;;;;;;23.21;46.19;102503.84;5087776;28;20054;-59
2022/08/08 10:37:52;;;;;;;4.13;1.73;;;;;;;23.28;47.47;102508.56;5077310;28;20056;-59
2022/08/08 10:40:19;;;;;;;5.43;1.77;;;;;;;23.35;47.86;102507.03;5077407;28;20143;-57
2022/08/08 10:42:48;;;;;;;2.60;1.40;;;;;;;23.43;48.44;102509.03;5084820;28;20040;-59
2022/08/08 10:45:16;;;;;;;2.50;1.67;;;;;;;23.33;47.96;102509.00;5085222;28;20106;-59
2022/08/08 10:47:43;;;;;;;3.00;1.52;;;;;;;22.99;47.47;102513.06;5070598;28;20039;-59
2022/08/08 10:50:11;;;;;;;6.45;1.65;;;;;;;22.78;47.84;102499.53;5083534;28;20498;-59
2022/08/08 10:52:40;;;;;;;3.87;1.80;;;;;;;22.86;49.02;102499.72;5075408;28;20032;-59
2022/08/08 10:55:12;;;;;;;4.72;1.90;;;;;;;23.00;48.70;102504.78;5056200;28;20324;-59
2022/08/08 10:57:43;;;;;;;3.03;1.50;;;;;;;23.15;48.00;102510.69;5085489;28;20036;-59
2022/08/08 11:00:11;;;;;;;6.75;1.73;;;;;;;23.30;47.27;102513.88;5071825;28;20408;-58
2022/08/08 11:02:37;;;;;;;5.80;2.00;;;;;;;23.43;47.18;102502.75;5091778;28;20105;-59
2022/08/08 11:05:08;;;;;;;2.30;1.50;;;;;;;23.72;46.96;102506.38;5089700;28;20028;-58
2022/08/08 11:07:37;;;;;;;2.60;1.50;;;;;;;23.79;47.11;102504.78;5110625;27;20061;-59
2022/08/08 11:10:10;;;;;;;3.78;1.60;;;;;;;23.95;45.58;102500.66;5130490;27;20019;-56
2022/08/08 11:12:47;;;;;;;4.32;1.65;;;;;;;24.13;45.44;102498.91;5127593;27;20058;-56
2022/08/08 11:15:15;;;;;;;5.57;2.33;;;;;;;24.14;44.44;102494.31;5134557;27;20362;-56
2022/08/08 11:17:41;;;;;;;6.43;1.67;;;;;;;24.40;45.15;102491.84;5116322;27;20112;-56
2022/08/08 11:20:09;;;;;;;4.40;2.10;;;;;;;24.37;44.67;102493.00;5128541;27;20023;-56
2022/08/08 11:22:36;;;;;;;3.97;1.48;;;;;;;24.42;44.39;102496.16;5115878;27;20018;-56
2022/08/08 11:25:05;;;;;;;8.10;1.60;;;;;;;24.21;44.09;102490.03;5126758;27;20028;-56
2022/08/08 11:27:34;;;;;;;2.85;1.70;;;;;;;24.16;44.33;102489.63;5125974;27;20390;-56
2022/08/08 11:30:02;;;;;;;3.35;1.48;;;;;;;24.19;44.53;102492.88;5131288;27;20031;-56
2022/08/08 11:32:30;;;;;;;2.97;1.33;;;;;;;24.30;44.20;102486.44;5127052;27;20023;-58
2022/08/08 11:35:03;;;;;;;4.73;1.30;;;;;;;24.32;45.34;102480.84;5134130;27;20015;-57
2022/08/08 11:37:32;;;;;;;4.32;1.60;;;;;;;24.14;44.22;102461.69;5114848;27;20057;-56
2022/08/08 11:40:00;;;;;;;9.77;1.40;;;;;;;24.07;43.94;102483.19;5112857;27;20031;-57
2022/08/08 11:42:26;;;;;;;3.93;1.10;;;;;;;23.95;44.82;102485.19;5118499;27;20066;-58
2022/08/08 11:44:56;;;;;;;4.70;1.05;;;;;;;23.78;44.71;102478.63;5127997;27;20311;-58
2022/08/08 11:47:22;;;;;;;1.90;1.27;;;;;;;23.67;44.85;102489.59;5131862;27;20046;-56